sensor_id;sensor_type;location;lat;lon;timestamp;temperature;humidity
29003;DHT22;16102;57.138;-2.118;2022-09-25T00:00:50;11.40;1.00
29003;DHT22;16102;57.138;-2.118;2022-09-25T00:03:19;11.50;1.00
29003;DHT22;16102;57.138;-2.118;2022-09-25T00:05:46;11.40;1.00
29003;DHT22;16102;57.138;-2.118;2022-09-25T00:08:15;11.20;1.00
29003;DHT22;16102;57.138;-2.118;2022-09-25T00:10:44;11.10;1.00
29003;DHT22;16102;57.138;-2.118;2022-09-25T00:13:11;11.20;1.00
29003;DHT22;16102;57.138;-2.118;2022-09-25T00:15:48;11.10;1.00
29003;DHT22;16102;57.138;-2.118;2022-09-25T00:18:16;11.00;1.00
29003;DHT22;16102;57.138;-2.118;2022-09-25T00:21:04;10.90;1.00
29003;DHT22;16102;57.138;-2.118;2022-09-25T00:23:31;10.90;1.00
29003;DHT22;16102;57.138;-2.118;2022-09-25T00:26:00;10.80;1.00
29003;DHT22;16102;57.138;-2.118;2022-09-25T00:28:27;11.00;1.00
29003;DHT22;16102;57.138;-2.118;2022-09-25T00:30:57;10.90;1.00
29003;DHT22;16102;57.138;-2.118;2022-09-25T00:33:25;10.90;1.00
29003;DHT22;16102;57.138;-2.118;2022-09-25T00:35:53;11.00;1.00
29003;DHT22;16102;57.138;-2.118;2022-09-25T00:38:20;11.00;1.00
29003;DHT22;16102;57.138;-2.118;2022-09-25T00:40:47;10.80;1.00
29003;DHT22;16102;57.138;-2.118;2022-09-25T00:43:31;10.80;1.00
29003;DHT22;16102;57.138;-2.118;2022-09-25T00:46:00;10.70;1.00
29003;DHT22;16102;57.138;-2.118;2022-09-25T00:48:29;10.70;1.00
29003;DHT22;16102;57.138;-2.118;2022-09-25T00:50:57;10.80;1.00
29003;DHT22;16102;57.138;-2.118;2022-09-25T00:53:29;10.80;1.00
29003;DHT22;16102;57.138;-2.118;2022-09-25T00:55:57;10.70;1.00
29003;DHT22;16102;57.138;-2.118;2022-09-25T00:58:27;10.70;1.00
29003;DHT22;16102;57.138;-2.118;2022-09-25T01:00:55;10.70;1.00
29003;DHT22;16102;57.138;-2.118;2022-09-25T01:03:22;10.70;1.00
29003;DHT22;16102;57.138;-2.118;2022-09-25T01:05:49;10.70;1.00
29003;DHT22;16102;57.138;-2.118;2022-09-25T01:08:20;10.80;1.00
29003;DHT22;16102;57.138;-2.118;2022-09-25T01:10:49;10.90;1.00
29003;DHT22;16102;57.138;-2.118;2022-09-25T01:13:16;10.90;1.00
29003;DHT22;16102;57.138;-2.118;2022-09-25T01:26:46;11.10;1.00
29003;DHT22;16102;57.138;-2.118;2022-09-25T01:29:30;11.00;1.00
29003;DHT22;16102;57.138;-2.118;2022-09-25T01:32:15;10.90;1.00
29003;DHT22;16102;57.138;-2.118;2022-09-25T01:43:29;10.90;1.00
29003;DHT22;16102;57.138;-2.118;2022-09-25T01:46:02;11.00;1.00
29003;DHT22;16102;57.138;-2.118;2022-09-25T01:48:31;11.00;1.00
29003;DHT22;16102;57.138;-2.118;2022-09-25T01:51:08;11.10;1.00
29003;DHT22;16102;57.138;-2.118;2022-09-25T01:53:49;11.20;1.00
29003;DHT22;16102;57.138;-2.118;2022-09-25T01:56:25;11.10;1.00
29003;DHT22;16102;57.138;-2.118;2022-09-25T01:59:04;11.20;1.00
29003;DHT22;16102;57.138;-2.118;2022-09-25T02:01:36;11.20;1.00
29003;DHT22;16102;57.138;-2.118;2022-09-25T02:04:24;11.10;1.00
29003;DHT22;16102;57.138;-2.118;2022-09-25T02:06:56;11.20;1.00
29003;DHT22;16102;57.138;-2.118;2022-09-25T02:09:33;11.20;1.00
29003;DHT22;16102;57.138;-2.118;2022-09-25T02:12:30;11.30;1.00
29003;DHT22;16102;57.138;-2.118;2022-09-25T02:15:04;11.10;1.00
29003;DHT22;16102;57.138;-2.118;2022-09-25T02:20:46;11.20;1.00
29003;DHT22;16102;57.138;-2.118;2022-09-25T02:23:24;11.20;1.00
29003;DHT22;16102;57.138;-2.118;2022-09-25T02:26:02;11.10;1.00
29003;DHT22;16102;57.138;-2.118;2022-09-25T02:28:30;11.20;1.00
29003;DHT22;16102;57.138;-2.118;2022-09-25T02:30:58;11.10;1.00
29003;DHT22;16102;57.138;-2.118;2022-09-25T02:33:26;11.00;1.00
29003;DHT22;16102;57.138;-2.118;2022-09-25T02:35:53;10.90;1.00
29003;DHT22;16102;57.138;-2.118;2022-09-25T02:38:20;10.90;1.00
29003;DHT22;16102;57.138;-2.118;2022-09-25T02:40:55;10.90;1.00
29003;DHT22;16102;57.138;-2.118;2022-09-25T02:46:44;10.80;1.00
29003;DHT22;16102;57.138;-2.118;2022-09-25T02:52:18;10.80;1.00
29003;DHT22;16102;57.138;-2.118;2022-09-25T02:55:08;10.80;1.00
29003;DHT22;16102;57.138;-2.118;2022-09-25T02:58:12;10.90;1.00
29003;DHT22;16102;57.138;-2.118;2022-09-25T03:00:28;10.90;1.00
29003;DHT22;16102;57.138;-2.118;2022-09-25T03:02:57;10.90;1.00
29003;DHT22;16102;57.138;-2.118;2022-09-25T03:05:26;11.00;1.00
29003;DHT22;16102;57.138;-2.118;2022-09-25T03:07:53;10.90;1.00
29003;DHT22;16102;57.138;-2.118;2022-09-25T03:10:39;11.10;1.00
29003;DHT22;16102;57.138;-2.118;2022-09-25T03:13:26;11.10;1.00
29003;DHT22;16102;57.138;-2.118;2022-09-25T03:18:53;11.10;1.00
29003;DHT22;16102;57.138;-2.118;2022-09-25T03:21:20;11.00;1.00
29003;DHT22;16102;57.138;-2.118;2022-09-25T03:23:46;10.90;1.00
29003;DHT22;16102;57.138;-2.118;2022-09-25T03:26:13;10.90;1.00
29003;DHT22;16102;57.138;-2.118;2022-09-25T03:28:41;10.80;1.00
29003;DHT22;16102;57.138;-2.118;2022-09-25T03:31:10;10.80;1.00
29003;DHT22;16102;57.138;-2.118;2022-09-25T03:33:39;10.80;1.00
29003;DHT22;16102;57.138;-2.118;2022-09-25T03:36:24;10.80;1.00
29003;DHT22;16102;57.138;-2.118;2022-09-25T03:38:53;10.90;1.00
29003;DHT22;16102;57.138;-2.118;2022-09-25T03:41:28;10.80;1.00
29003;DHT22;16102;57.138;-2.118;2022-09-25T03:43:57;10.70;1.00
29003;DHT22;16102;57.138;-2.118;2022-09-25T03:46:26;10.80;1.00
29003;DHT22;16102;57.138;-2.118;2022-09-25T03:48:54;10.70;1.00
29003;DHT22;16102;57.138;-2.118;2022-09-25T03:51:22;10.70;1.00
29003;DHT22;16102;57.138;-2.118;2022-09-25T03:53:49;10.60;1.00
29003;DHT22;16102;57.138;-2.118;2022-09-25T03:56:19;10.60;1.00
29003;DHT22;16102;57.138;-2.118;2022-09-25T03:58:47;10.60;1.00
29003;DHT22;16102;57.138;-2.118;2022-09-25T04:01:14;10.60;1.00
29003;DHT22;16102;57.138;-2.118;2022-09-25T04:03:42;10.60;1.00
29003;DHT22;16102;57.138;-2.118;2022-09-25T04:06:15;10.60;1.00
29003;DHT22;16102;57.138;-2.118;2022-09-25T04:08:45;10.70;1.00
29003;DHT22;16102;57.138;-2.118;2022-09-25T04:11:13;10.70;1.00
29003;DHT22;16102;57.138;-2.118;2022-09-25T04:13:40;10.70;1.00
29003;DHT22;16102;57.138;-2.118;2022-09-25T04:16:11;10.80;1.00
29003;DHT22;16102;57.138;-2.118;2022-09-25T04:18:39;10.90;1.00
29003;DHT22;16102;57.138;-2.118;2022-09-25T04:21:10;10.90;1.00
29003;DHT22;16102;57.138;-2.118;2022-09-25T04:23:38;10.90;1.00
29003;DHT22;16102;57.138;-2.118;2022-09-25T04:26:06;11.00;1.00
29003;DHT22;16102;57.138;-2.118;2022-09-25T04:28:33;11.00;1.00
29003;DHT22;16102;57.138;-2.118;2022-09-25T04:31:01;10.90;1.00
29003;DHT22;16102;57.138;-2.118;2022-09-25T04:33:29;10.90;1.00
29003;DHT22;16102;57.138;-2.118;2022-09-25T04:36:13;10.90;1.00
29003;DHT22;16102;57.138;-2.118;2022-09-25T04:38:40;10.80;1.00
29003;DHT22;16102;57.138;-2.118;2022-09-25T04:41:07;10.90;1.00
29003;DHT22;16102;57.138;-2.118;2022-09-25T04:43:34;11.00;1.00
29003;DHT22;16102;57.138;-2.118;2022-09-25T04:46:06;11.00;1.00
29003;DHT22;16102;57.138;-2.118;2022-09-25T04:48:34;10.90;1.00
29003;DHT22;16102;57.138;-2.118;2022-09-25T04:51:02;11.00;1.00
29003;DHT22;16102;57.138;-2.118;2022-09-25T04:53:31;10.90;1.00
29003;DHT22;16102;57.138;-2.118;2022-09-25T04:56:03;10.90;1.00
29003;DHT22;16102;57.138;-2.118;2022-09-25T04:58:31;10.80;1.00
29003;DHT22;16102;57.138;-2.118;2022-09-25T05:01:06;10.80;1.00
29003;DHT22;16102;57.138;-2.118;2022-09-25T05:03:34;10.80;1.00
29003;DHT22;16102;57.138;-2.118;2022-09-25T05:06:01;10.70;1.00
29003;DHT22;16102;57.138;-2.118;2022-09-25T05:08:28;10.70;1.00
29003;DHT22;16102;57.138;-2.118;2022-09-25T05:10:55;10.80;1.00
29003;DHT22;16102;57.138;-2.118;2022-09-25T05:13:22;10.70;1.00
29003;DHT22;16102;57.138;-2.118;2022-09-25T05:15:49;10.70;1.00
29003;DHT22;16102;57.138;-2.118;2022-09-25T05:18:19;10.80;1.00
29003;DHT22;16102;57.138;-2.118;2022-09-25T05:20:47;10.80;1.00
29003;DHT22;16102;57.138;-2.118;2022-09-25T05:23:15;10.80;1.00
29003;DHT22;16102;57.138;-2.118;2022-09-25T05:25:42;10.80;1.00
29003;DHT22;16102;57.138;-2.118;2022-09-25T05:28:09;10.70;1.00
29003;DHT22;16102;57.138;-2.118;2022-09-25T05:30:37;10.70;1.00
29003;DHT22;16102;57.138;-2.118;2022-09-25T05:33:05;10.70;1.00
29003;DHT22;16102;57.138;-2.118;2022-09-25T05:35:32;10.80;1.00
29003;DHT22;16102;57.138;-2.118;2022-09-25T05:37:59;10.80;1.00
29003;DHT22;16102;57.138;-2.118;2022-09-25T05:40:26;10.80;1.00
29003;DHT22;16102;57.138;-2.118;2022-09-25T05:42:54;10.90;1.00
29003;DHT22;16102;57.138;-2.118;2022-09-25T05:45:22;11.00;1.00
29003;DHT22;16102;57.138;-2.118;2022-09-25T05:48:02;11.00;1.00
29003;DHT22;16102;57.138;-2.118;2022-09-25T05:50:30;11.00;1.00
29003;DHT22;16102;57.138;-2.118;2022-09-25T05:53:02;11.10;1.00
29003;DHT22;16102;57.138;-2.118;2022-09-25T05:55:29;11.10;1.00
29003;DHT22;16102;57.138;-2.118;2022-09-25T05:58:00;11.10;1.00
29003;DHT22;16102;57.138;-2.118;2022-09-25T06:00:29;11.10;1.00
29003;DHT22;16102;57.138;-2.118;2022-09-25T06:03:01;11.20;1.00
29003;DHT22;16102;57.138;-2.118;2022-09-25T06:05:29;11.20;1.00
29003;DHT22;16102;57.138;-2.118;2022-09-25T06:07:56;11.20;1.00
29003;DHT22;16102;57.138;-2.118;2022-09-25T06:10:22;11.20;1.00
29003;DHT22;16102;57.138;-2.118;2022-09-25T06:12:59;11.20;1.00
29003;DHT22;16102;57.138;-2.118;2022-09-25T06:15:28;11.10;1.00
29003;DHT22;16102;57.138;-2.118;2022-09-25T06:17:55;11.10;1.00
29003;DHT22;16102;57.138;-2.118;2022-09-25T06:20:23;11.10;1.00
29003;DHT22;16102;57.138;-2.118;2022-09-25T06:22:52;11.10;1.00
29003;DHT22;16102;57.138;-2.118;2022-09-25T06:25:21;11.10;1.00
29003;DHT22;16102;57.138;-2.118;2022-09-25T06:27:53;10.90;1.00
29003;DHT22;16102;57.138;-2.118;2022-09-25T06:30:22;10.90;1.00
29003;DHT22;16102;57.138;-2.118;2022-09-25T06:32:56;10.90;1.00
29003;DHT22;16102;57.138;-2.118;2022-09-25T06:35:23;10.90;1.00
29003;DHT22;16102;57.138;-2.118;2022-09-25T06:37:50;10.90;1.00
29003;DHT22;16102;57.138;-2.118;2022-09-25T06:40:17;10.80;1.00
29003;DHT22;16102;57.138;-2.118;2022-09-25T06:42:44;10.80;1.00
29003;DHT22;16102;57.138;-2.118;2022-09-25T06:45:11;10.80;1.00
29003;DHT22;16102;57.138;-2.118;2022-09-25T06:47:38;10.80;1.00
29003;DHT22;16102;57.138;-2.118;2022-09-25T06:50:05;10.90;1.00
29003;DHT22;16102;57.138;-2.118;2022-09-25T06:52:32;10.90;1.00
29003;DHT22;16102;57.138;-2.118;2022-09-25T06:54:59;10.80;1.00
29003;DHT22;16102;57.138;-2.118;2022-09-25T06:57:26;10.90;1.00
29003;DHT22;16102;57.138;-2.118;2022-09-25T06:59:53;10.90;1.00
29003;DHT22;16102;57.138;-2.118;2022-09-25T07:02:20;11.00;1.00
29003;DHT22;16102;57.138;-2.118;2022-09-25T07:05:05;11.00;1.00
29003;DHT22;16102;57.138;-2.118;2022-09-25T07:07:32;11.00;1.00
29003;DHT22;16102;57.138;-2.118;2022-09-25T07:09:59;11.00;1.00
29003;DHT22;16102;57.138;-2.118;2022-09-25T07:12:26;11.00;1.00
29003;DHT22;16102;57.138;-2.118;2022-09-25T07:14:53;11.10;1.00
29003;DHT22;16102;57.138;-2.118;2022-09-25T07:17:20;11.10;1.00
29003;DHT22;16102;57.138;-2.118;2022-09-25T07:19:47;11.10;1.00
29003;DHT22;16102;57.138;-2.118;2022-09-25T07:22:14;11.20;1.00
29003;DHT22;16102;57.138;-2.118;2022-09-25T07:24:41;11.20;1.00
29003;DHT22;16102;57.138;-2.118;2022-09-25T07:27:08;11.30;1.00
29003;DHT22;16102;57.138;-2.118;2022-09-25T07:29:35;11.30;1.00
29003;DHT22;16102;57.138;-2.118;2022-09-25T07:32:02;11.30;1.00
29003;DHT22;16102;57.138;-2.118;2022-09-25T07:34:30;11.30;1.00
29003;DHT22;16102;57.138;-2.118;2022-09-25T07:36:57;11.40;1.00
29003;DHT22;16102;57.138;-2.118;2022-09-25T07:39:24;11.40;1.00
29003;DHT22;16102;57.138;-2.118;2022-09-25T07:41:53;11.40;1.00
29003;DHT22;16102;57.138;-2.118;2022-09-25T07:44:20;11.30;1.00
29003;DHT22;16102;57.138;-2.118;2022-09-25T07:46:57;11.30;1.00
29003;DHT22;16102;57.138;-2.118;2022-09-25T07:49:24;11.30;1.00
29003;DHT22;16102;57.138;-2.118;2022-09-25T07:51:51;11.30;1.00
29003;DHT22;16102;57.138;-2.118;2022-09-25T07:54:18;11.40;1.00
29003;DHT22;16102;57.138;-2.118;2022-09-25T07:56:45;11.40;1.00
29003;DHT22;16102;57.138;-2.118;2022-09-25T07:59:12;11.50;1.00
29003;DHT22;16102;57.138;-2.118;2022-09-25T08:01:39;11.50;1.00
29003;DHT22;16102;57.138;-2.118;2022-09-25T08:04:11;11.50;1.00
29003;DHT22;16102;57.138;-2.118;2022-09-25T08:06:38;11.60;1.00
29003;DHT22;16102;57.138;-2.118;2022-09-25T08:09:05;11.60;1.00
29003;DHT22;16102;57.138;-2.118;2022-09-25T08:11:36;11.60;1.00
29003;DHT22;16102;57.138;-2.118;2022-09-25T08:14:03;11.70;1.00
29003;DHT22;16102;57.138;-2.118;2022-09-25T08:16:30;11.80;1.00
29003;DHT22;16102;57.138;-2.118;2022-09-25T08:18:57;11.80;1.00
29003;DHT22;16102;57.138;-2.118;2022-09-25T08:21:24;11.90;1.00
29003;DHT22;16102;57.138;-2.118;2022-09-25T08:23:52;11.90;1.00
29003;DHT22;16102;57.138;-2.118;2022-09-25T08:26:21;12.00;1.00
29003;DHT22;16102;57.138;-2.118;2022-09-25T08:28:49;12.00;1.00
29003;DHT22;16102;57.138;-2.118;2022-09-25T08:31:16;12.10;1.00
29003;DHT22;16102;57.138;-2.118;2022-09-25T08:33:48;12.10;1.00
29003;DHT22;16102;57.138;-2.118;2022-09-25T08:36:16;12.10;1.00
29003;DHT22;16102;57.138;-2.118;2022-09-25T08:38:43;12.10;1.00
29003;DHT22;16102;57.138;-2.118;2022-09-25T08:41:43;12.20;1.00
29003;DHT22;16102;57.138;-2.118;2022-09-25T08:44:22;12.20;1.00
29003;DHT22;16102;57.138;-2.118;2022-09-25T08:50:21;12.10;1.00
29003;DHT22;16102;57.138;-2.118;2022-09-25T08:52:51;12.20;1.00
29003;DHT22;16102;57.138;-2.118;2022-09-25T08:55:29;12.20;1.00
29003;DHT22;16102;57.138;-2.118;2022-09-25T08:58:36;12.20;1.00
29003;DHT22;16102;57.138;-2.118;2022-09-25T09:01:14;12.30;1.00
29003;DHT22;16102;57.138;-2.118;2022-09-25T09:06:17;12.30;1.00
29003;DHT22;16102;57.138;-2.118;2022-09-25T09:08:55;12.50;1.00
29003;DHT22;16102;57.138;-2.118;2022-09-25T09:11:39;12.70;1.00
29003;DHT22;16102;57.138;-2.118;2022-09-25T09:14:14;12.80;1.00
29003;DHT22;16102;57.138;-2.118;2022-09-25T09:17:11;13.10;1.00
29003;DHT22;16102;57.138;-2.118;2022-09-25T09:19:46;13.20;1.00
29003;DHT22;16102;57.138;-2.118;2022-09-25T09:22:16;13.30;1.00
29003;DHT22;16102;57.138;-2.118;2022-09-25T09:31:04;13.30;1.00
29003;DHT22;16102;57.138;-2.118;2022-09-25T09:50:31;13.80;1.00
29003;DHT22;16102;57.138;-2.118;2022-09-25T09:55:51;14.10;1.00
29003;DHT22;16102;57.138;-2.118;2022-09-25T09:58:23;14.20;1.00
29003;DHT22;16102;57.138;-2.118;2022-09-25T10:00:52;14.40;1.00
29003;DHT22;16102;57.138;-2.118;2022-09-25T10:03:32;14.70;1.00
29003;DHT22;16102;57.138;-2.118;2022-09-25T10:06:03;14.80;99.90
29003;DHT22;16102;57.138;-2.118;2022-09-25T10:08:31;15.00;99.90
29003;DHT22;16102;57.138;-2.118;2022-09-25T10:10:57;15.00;99.90
29003;DHT22;16102;57.138;-2.118;2022-09-25T10:13:31;14.90;99.90
29003;DHT22;16102;57.138;-2.118;2022-09-25T10:16:05;14.90;99.90
29003;DHT22;16102;57.138;-2.118;2022-09-25T10:21:36;15.30;99.90
29003;DHT22;16102;57.138;-2.118;2022-09-25T10:24:05;15.20;99.90
29003;DHT22;16102;57.138;-2.118;2022-09-25T10:26:36;15.20;99.90
29003;DHT22;16102;57.138;-2.118;2022-09-25T10:31:47;14.90;99.90
29003;DHT22;16102;57.138;-2.118;2022-09-25T10:34:22;15.00;99.90
29003;DHT22;16102;57.138;-2.118;2022-09-25T10:36:51;15.30;99.90
29003;DHT22;16102;57.138;-2.118;2022-09-25T10:39:34;15.80;99.90
29003;DHT22;16102;57.138;-2.118;2022-09-25T10:42:38;16.40;99.90
29003;DHT22;16102;57.138;-2.118;2022-09-25T10:47:49;17.00;99.90
29003;DHT22;16102;57.138;-2.118;2022-09-25T10:50:35;17.20;99.90
29003;DHT22;16102;57.138;-2.118;2022-09-25T10:53:09;17.30;99.90
29003;DHT22;16102;57.138;-2.118;2022-09-25T10:55:54;17.40;99.90
29003;DHT22;16102;57.138;-2.118;2022-09-25T10:58:31;17.30;99.90
29003;DHT22;16102;57.138;-2.118;2022-09-25T11:01:02;17.30;99.90
29003;DHT22;16102;57.138;-2.118;2022-09-25T11:03:32;17.50;99.90
29003;DHT22;16102;57.138;-2.118;2022-09-25T11:06:06;17.80;99.90
29003;DHT22;16102;57.138;-2.118;2022-09-25T11:08:38;17.90;99.90
29003;DHT22;16102;57.138;-2.118;2022-09-25T11:11:06;17.80;99.90
29003;DHT22;16102;57.138;-2.118;2022-09-25T11:13:38;17.90;99.90
29003;DHT22;16102;57.138;-2.118;2022-09-25T11:16:09;17.80;99.90
29003;DHT22;16102;57.138;-2.118;2022-09-25T11:18:51;17.80;99.90
29003;DHT22;16102;57.138;-2.118;2022-09-25T11:21:52;17.30;99.90
29003;DHT22;16102;57.138;-2.118;2022-09-25T11:27:09;17.10;99.90
29003;DHT22;16102;57.138;-2.118;2022-09-25T11:29:52;17.20;99.90
29003;DHT22;16102;57.138;-2.118;2022-09-25T11:36:04;17.20;99.90
29003;DHT22;16102;57.138;-2.118;2022-09-25T11:44:50;17.70;99.90
29003;DHT22;16102;57.138;-2.118;2022-09-25T11:50:15;18.20;99.90
29003;DHT22;16102;57.138;-2.118;2022-09-25T12:17:49;17.30;99.90
29003;DHT22;16102;57.138;-2.118;2022-09-25T12:20:36;17.20;99.90
29003;DHT22;16102;57.138;-2.118;2022-09-25T12:23:21;17.10;99.90
29003;DHT22;16102;57.138;-2.118;2022-09-25T12:26:06;17.00;99.90
29003;DHT22;16102;57.138;-2.118;2022-09-25T12:37:29;17.10;99.90
29003;DHT22;16102;57.138;-2.118;2022-09-25T12:40:02;17.10;99.90
29003;DHT22;16102;57.138;-2.118;2022-09-25T12:42:50;17.10;99.90
29003;DHT22;16102;57.138;-2.118;2022-09-25T12:45:40;17.30;99.90
29003;DHT22;16102;57.138;-2.118;2022-09-25T12:50:48;17.30;99.90
29003;DHT22;16102;57.138;-2.118;2022-09-25T12:53:50;17.50;99.90
29003;DHT22;16102;57.138;-2.118;2022-09-25T12:56:26;17.70;99.90
29003;DHT22;16102;57.138;-2.118;2022-09-25T12:59:08;17.90;99.90
29003;DHT22;16102;57.138;-2.118;2022-09-25T13:05:38;18.20;99.90
29003;DHT22;16102;57.138;-2.118;2022-09-25T13:07:58;17.80;99.90
29003;DHT22;16102;57.138;-2.118;2022-09-25T13:13:04;17.60;99.90
29003;DHT22;16102;57.138;-2.118;2022-09-25T13:15:39;17.50;99.90
29003;DHT22;16102;57.138;-2.118;2022-09-25T13:18:24;17.20;99.90
29003;DHT22;16102;57.138;-2.118;2022-09-25T13:20:56;17.10;99.90
29003;DHT22;16102;57.138;-2.118;2022-09-25T13:25:59;16.90;99.90
29003;DHT22;16102;57.138;-2.118;2022-09-25T13:28:35;16.80;99.90
29003;DHT22;16102;57.138;-2.118;2022-09-25T13:31:12;16.80;99.90
29003;DHT22;16102;57.138;-2.118;2022-09-25T13:33:49;16.80;99.90
29003;DHT22;16102;57.138;-2.118;2022-09-25T13:55:16;16.30;99.90
29003;DHT22;16102;57.138;-2.118;2022-09-25T14:03:01;16.10;99.90
29003;DHT22;16102;57.138;-2.118;2022-09-25T14:05:31;16.20;99.90
29003;DHT22;16102;57.138;-2.118;2022-09-25T14:08:14;16.10;99.90
29003;DHT22;16102;57.138;-2.118;2022-09-25T14:10:48;16.10;99.90
29003;DHT22;16102;57.138;-2.118;2022-09-25T14:13:19;16.10;99.90
29003;DHT22;16102;57.138;-2.118;2022-09-25T14:15:49;16.20;99.90
29003;DHT22;16102;57.138;-2.118;2022-09-25T14:20:55;16.20;99.90
29003;DHT22;16102;57.138;-2.118;2022-09-25T14:23:25;16.20;99.90
29003;DHT22;16102;57.138;-2.118;2022-09-25T14:25:57;16.20;99.90
29003;DHT22;16102;57.138;-2.118;2022-09-25T14:28:27;16.20;99.90
29003;DHT22;16102;57.138;-2.118;2022-09-25T14:39:09;16.40;99.90
29003;DHT22;16102;57.138;-2.118;2022-09-25T14:41:53;16.40;99.90
29003;DHT22;16102;57.138;-2.118;2022-09-25T14:47:21;16.40;99.90
29003;DHT22;16102;57.138;-2.118;2022-09-25T14:49:50;16.40;99.90
29003;DHT22;16102;57.138;-2.118;2022-09-25T14:52:25;16.40;99.90
29003;DHT22;16102;57.138;-2.118;2022-09-25T14:54:55;16.40;99.90
29003;DHT22;16102;57.138;-2.118;2022-09-25T14:57:33;16.40;99.90
29003;DHT22;16102;57.138;-2.118;2022-09-25T15:00:05;16.50;99.90
29003;DHT22;16102;57.138;-2.118;2022-09-25T15:02:37;16.50;99.90
29003;DHT22;16102;57.138;-2.118;2022-09-25T15:07:49;16.50;99.90
29003;DHT22;16102;57.138;-2.118;2022-09-25T15:12:49;16.40;99.90
29003;DHT22;16102;57.138;-2.118;2022-09-25T15:15:17;16.30;99.90
29003;DHT22;16102;57.138;-2.118;2022-09-25T15:17:55;16.30;99.90
29003;DHT22;16102;57.138;-2.118;2022-09-25T15:20:27;16.30;99.90
29003;DHT22;16102;57.138;-2.118;2022-09-25T15:22:57;16.30;99.90
29003;DHT22;16102;57.138;-2.118;2022-09-25T15:25:32;16.30;99.90
29003;DHT22;16102;57.138;-2.118;2022-09-25T15:27:59;16.40;99.90
29003;DHT22;16102;57.138;-2.118;2022-09-25T15:30:30;16.40;99.90
29003;DHT22;16102;57.138;-2.118;2022-09-25T15:33:00;16.40;99.90
29003;DHT22;16102;57.138;-2.118;2022-09-25T15:35:28;16.30;99.90
29003;DHT22;16102;57.138;-2.118;2022-09-25T15:38:32;16.20;99.90
29003;DHT22;16102;57.138;-2.118;2022-09-25T15:41:00;16.20;99.90
29003;DHT22;16102;57.138;-2.118;2022-09-25T15:43:27;16.30;99.90
29003;DHT22;16102;57.138;-2.118;2022-09-25T15:48:29;16.10;99.90
29003;DHT22;16102;57.138;-2.118;2022-09-25T15:51:04;16.00;99.90
29003;DHT22;16102;57.138;-2.118;2022-09-25T15:53:39;16.00;99.90
29003;DHT22;16102;57.138;-2.118;2022-09-25T15:56:17;16.00;99.90
29003;DHT22;16102;57.138;-2.118;2022-09-25T15:58:57;15.90;99.90
29003;DHT22;16102;57.138;-2.118;2022-09-25T16:01:28;15.90;99.90
29003;DHT22;16102;57.138;-2.118;2022-09-25T16:04:22;15.90;99.90
29003;DHT22;16102;57.138;-2.118;2022-09-25T16:07:25;15.90;99.90
29003;DHT22;16102;57.138;-2.118;2022-09-25T16:10:02;15.80;99.90
29003;DHT22;16102;57.138;-2.118;2022-09-25T16:23:34;14.30;1.00
29003;DHT22;16102;57.138;-2.118;2022-09-25T16:26:04;13.90;1.00
29003;DHT22;16102;57.138;-2.118;2022-09-25T16:28:34;14.00;24.80
29003;DHT22;16102;57.138;-2.118;2022-09-25T16:31:08;13.70;99.90
29003;DHT22;16102;57.138;-2.118;2022-09-25T16:33:39;13.60;99.90
29003;DHT22;16102;57.138;-2.118;2022-09-25T16:36:11;13.60;99.90
29003;DHT22;16102;57.138;-2.118;2022-09-25T16:41:30;13.40;99.90
29003;DHT22;16102;57.138;-2.118;2022-09-25T16:44:15;13.60;99.90
29003;DHT22;16102;57.138;-2.118;2022-09-25T16:49:20;13.50;1.00
29003;DHT22;16102;57.138;-2.118;2022-09-25T16:51:48;13.40;99.90
29003;DHT22;16102;57.138;-2.118;2022-09-25T16:54:18;13.60;99.90
29003;DHT22;16102;57.138;-2.118;2022-09-25T16:56:46;13.50;99.90
29003;DHT22;16102;57.138;-2.118;2022-09-25T16:59:18;13.80;99.90
29003;DHT22;16102;57.138;-2.118;2022-09-25T17:01:48;14.00;1.00
29003;DHT22;16102;57.138;-2.118;2022-09-25T17:04:18;14.50;1.00
29003;DHT22;16102;57.138;-2.118;2022-09-25T17:06:45;14.70;39.90
29003;DHT22;16102;57.138;-2.118;2022-09-25T17:09:15;15.00;99.90
29003;DHT22;16102;57.138;-2.118;2022-09-25T17:11:46;14.80;99.90
29003;DHT22;16102;57.138;-2.118;2022-09-25T17:14:20;14.80;99.90
29003;DHT22;16102;57.138;-2.118;2022-09-25T17:16:52;14.50;99.90
29003;DHT22;16102;57.138;-2.118;2022-09-25T17:19:19;14.00;31.80
29003;DHT22;16102;57.138;-2.118;2022-09-25T17:21:49;13.90;1.00
29003;DHT22;16102;57.138;-2.118;2022-09-25T17:24:18;13.70;1.00
29003;DHT22;16102;57.138;-2.118;2022-09-25T17:26:45;13.70;99.90
29003;DHT22;16102;57.138;-2.118;2022-09-25T17:29:12;13.70;99.90
29003;DHT22;16102;57.138;-2.118;2022-09-25T17:31:40;13.70;99.90
29003;DHT22;16102;57.138;-2.118;2022-09-25T17:34:18;13.80;99.90
29003;DHT22;16102;57.138;-2.118;2022-09-25T17:36:46;13.80;99.90
29003;DHT22;16102;57.138;-2.118;2022-09-25T17:39:13;13.80;96.00
29003;DHT22;16102;57.138;-2.118;2022-09-25T17:41:40;13.90;29.30
29003;DHT22;16102;57.138;-2.118;2022-09-25T17:44:18;13.80;30.30
29003;DHT22;16102;57.138;-2.118;2022-09-25T17:46:48;13.90;1.00
29003;DHT22;16102;57.138;-2.118;2022-09-25T17:49:15;14.00;1.00
29003;DHT22;16102;57.138;-2.118;2022-09-25T17:51:43;14.00;1.00
29003;DHT22;16102;57.138;-2.118;2022-09-25T17:54:10;13.90;1.00
29003;DHT22;16102;57.138;-2.118;2022-09-25T17:56:39;13.70;1.20
29003;DHT22;16102;57.138;-2.118;2022-09-25T17:59:08;13.70;1.00
29003;DHT22;16102;57.138;-2.118;2022-09-25T18:01:35;13.60;1.00
29003;DHT22;16102;57.138;-2.118;2022-09-25T18:04:25;13.70;1.00
29003;DHT22;16102;57.138;-2.118;2022-09-25T18:06:52;13.50;1.00
29003;DHT22;16102;57.138;-2.118;2022-09-25T18:09:20;13.50;31.90
29003;DHT22;16102;57.138;-2.118;2022-09-25T18:11:46;13.40;32.20
29003;DHT22;16102;57.138;-2.118;2022-09-25T18:14:14;13.40;55.00
29003;DHT22;16102;57.138;-2.118;2022-09-25T18:16:42;13.30;34.60
29003;DHT22;16102;57.138;-2.118;2022-09-25T18:19:15;13.30;92.30
29003;DHT22;16102;57.138;-2.118;2022-09-25T18:22:01;13.20;99.90
29003;DHT22;16102;57.138;-2.118;2022-09-25T18:24:49;13.30;74.80
29003;DHT22;16102;57.138;-2.118;2022-09-25T18:27:24;13.10;42.40
29003;DHT22;16102;57.138;-2.118;2022-09-25T18:29:52;13.10;74.20
29003;DHT22;16102;57.138;-2.118;2022-09-25T18:32:19;13.00;74.40
29003;DHT22;16102;57.138;-2.118;2022-09-25T18:34:46;13.00;99.80
29003;DHT22;16102;57.138;-2.118;2022-09-25T18:37:13;13.00;99.90
29003;DHT22;16102;57.138;-2.118;2022-09-25T18:39:40;12.90;99.90
29003;DHT22;16102;57.138;-2.118;2022-09-25T18:42:07;12.80;99.90
29003;DHT22;16102;57.138;-2.118;2022-09-25T18:44:34;12.80;99.90
29003;DHT22;16102;57.138;-2.118;2022-09-25T18:47:08;12.80;99.90
29003;DHT22;16102;57.138;-2.118;2022-09-25T18:49:35;12.80;99.90
29003;DHT22;16102;57.138;-2.118;2022-09-25T18:52:03;12.80;99.90
29003;DHT22;16102;57.138;-2.118;2022-09-25T18:54:30;12.70;99.90
29003;DHT22;16102;57.138;-2.118;2022-09-25T18:56:57;12.80;99.90
29003;DHT22;16102;57.138;-2.118;2022-09-25T18:59:24;12.80;99.90
29003;DHT22;16102;57.138;-2.118;2022-09-25T19:01:54;12.80;99.90
29003;DHT22;16102;57.138;-2.118;2022-09-25T19:04:21;12.80;99.90
29003;DHT22;16102;57.138;-2.118;2022-09-25T19:06:50;12.90;99.90
29003;DHT22;16102;57.138;-2.118;2022-09-25T19:09:22;12.90;99.90